createdAt,value
2022-09-10T00:00:36.924Z,13.36
2022-09-10T00:03:04.641Z,13.29
2022-09-10T00:05:38.111Z,13.29
2022-09-10T00:08:06.303Z,13.28
2022-09-10T00:10:39.496Z,13.21
2022-09-10T00:13:07.925Z,13.09
2022-09-10T00:15:41.502Z,13.14
2022-09-10T00:18:09.549Z,13.13
2022-09-10T00:20:50.071Z,13.16
2022-09-10T00:23:25.255Z,13.13
2022-09-10T00:25:53.524Z,13.13
2022-09-10T00:28:22.543Z,13.13
2022-09-10T00:30:51.500Z,13.19
2022-09-10T00:33:20.449Z,13.19
2022-09-10T00:35:49.032Z,13.28
2022-09-10T00:38:18.528Z,13.30
2022-09-10T00:40:45.652Z,13.34
2022-09-10T00:43:20.647Z,13.38
2022-09-10T00:45:51.329Z,13.44
2022-09-10T00:48:22.890Z,13.50
2022-09-10T00:50:51.960Z,13.58
2022-09-10T00:53:27.084Z,13.57
2022-09-10T00:55:59.966Z,13.53
2022-09-10T00:58:28.311Z,13.43
2022-09-10T01:01:00.416Z,13.44
2022-09-10T01:03:32.527Z,13.43
2022-09-10T01:06:00.114Z,13.43
2022-09-10T01:08:29.733Z,13.41
2022-09-10T01:11:08.893Z,13.49
2022-09-10T01:14:03.818Z,13.44
2022-09-10T01:16:51.657Z,13.38
2022-09-10T01:19:37.192Z,13.32
2022-09-10T01:22:29.485Z,13.25
2022-09-10T01:25:05.883Z,13.14
2022-09-10T01:27:42.745Z,13.10
2022-09-10T01:30:14.744Z,13.00
2022-09-10T01:32:54.273Z,13.06
2022-09-10T01:35:32.383Z,12.94
2022-09-10T01:38:05.928Z,12.92
2022-09-10T01:40:34.232Z,12.96
2022-09-10T01:43:10.385Z,12.97
2022-09-10T01:46:09.717Z,12.95
2022-09-10T01:48:51.974Z,13.03
2022-09-10T01:51:21.667Z,13.08
2022-09-10T01:54:11.436Z,13.10
2022-09-10T01:56:51.545Z,13.00
2022-09-10T01:59:29.216Z,12.92
2022-09-10T02:02:04.790Z,12.97
2022-09-10T02:04:32.088Z,12.89
2022-09-10T02:06:59.742Z,12.92
2022-09-10T02:09:27.499Z,12.88
2022-09-10T02:11:56.127Z,12.92
2022-09-10T02:14:51.380Z,12.95
2022-09-10T02:17:24.967Z,12.93
2022-09-10T02:19:54.008Z,12.94
2022-09-10T02:22:23.327Z,12.85
2022-09-10T02:24:52.164Z,12.96
2022-09-10T02:27:19.135Z,12.79
2022-09-10T02:29:45.746Z,12.81
2022-09-10T02:32:13.383Z,12.82
2022-09-10T02:34:41.296Z,12.75
2022-09-10T02:37:08.074Z,12.81
2022-09-10T02:39:37.077Z,12.78
2022-09-10T02:42:03.961Z,12.82
2022-09-10T02:44:31.114Z,12.86
2022-09-10T02:47:00.631Z,12.92
2022-09-10T02:49:28.129Z,12.98
2022-09-10T02:51:55.292Z,12.94
2022-09-10T02:54:23.550Z,12.99
2022-09-10T02:56:50.294Z,12.86
2022-09-10T02:59:20.291Z,12.76
2022-09-10T03:01:48.442Z,12.64
2022-09-10T03:04:17.116Z,12.78
2022-09-10T03:06:49.360Z,12.82
2022-09-10T03:09:17.167Z,12.88
2022-09-10T03:11:43.942Z,12.79
2022-09-10T03:14:10.961Z,12.79
2022-09-10T03:16:37.890Z,12.76
2022-09-10T03:19:06.499Z,12.72
2022-09-10T03:21:34.419Z,12.74
2022-09-10T03:24:01.258Z,12.65
2022-09-10T03:26:30.541Z,12.69
2022-09-10T03:28:57.668Z,12.62
2022-09-10T03:31:27.343Z,12.61
2022-09-10T03:33:54.450Z,12.60
2022-09-10T03:36:22.929Z,12.51
2022-09-10T03:38:50.383Z,12.58
2022-09-10T03:41:17.272Z,12.52
2022-09-10T03:43:44.822Z,12.58
2022-09-10T03:46:14.630Z,12.44
2022-09-10T03:48:43.846Z,12.51
2022-09-10T03:51:11.254Z,12.47
2022-09-10T03:53:39.255Z,12.43
2022-09-10T03:56:08.449Z,12.46
2022-09-10T03:58:35.876Z,12.58
2022-09-10T04:01:04.151Z,12.72
2022-09-10T04:03:34.180Z,12.72
2022-09-10T04:06:00.888Z,12.66
2022-09-10T04:08:27.633Z,12.62
2022-09-10T04:10:57.139Z,12.64
2022-09-10T04:13:24.870Z,12.53
2022-09-10T04:15:53.331Z,12.60
2022-09-10T04:18:21.358Z,12.50
2022-09-10T04:20:48.635Z,12.52
2022-09-10T04:23:16.382Z,12.55
2022-09-10T04:25:44.056Z,12.59
2022-09-10T04:28:11.694Z,12.58
2022-09-10T04:30:40.324Z,12.62
2022-09-10T04:33:07.881Z,12.62
2022-09-10T04:35:34.871Z,12.52
2022-09-10T04:38:04.403Z,12.48
2022-09-10T04:40:31.264Z,12.50
2022-09-10T04:42:57.957Z,12.52
2022-09-10T04:45:25.746Z,12.54
2022-09-10T04:47:54.384Z,12.57
2022-09-10T04:50:21.973Z,12.47
2022-09-10T04:53:12.273Z,12.61
2022-09-10T04:55:43.005Z,12.51
2022-09-10T04:58:10.482Z,12.60
2022-09-10T05:00:39.404Z,12.56
2022-09-10T05:03:07.843Z,12.51
2022-09-10T05:05:36.614Z,12.41
2022-09-10T05:08:05.755Z,12.43
2022-09-10T05:10:33.340Z,12.36
2022-09-10T05:13:00.101Z,12.36
2022-09-10T05:15:26.878Z,12.41
2022-09-10T05:17:53.975Z,12.38
2022-09-10T05:20:20.648Z,12.33
2022-09-10T05:22:50.643Z,12.38
2022-09-10T05:25:17.775Z,12.32
2022-09-10T05:27:44.445Z,12.39
2022-09-10T05:30:15.602Z,12.34
2022-09-10T05:32:42.299Z,12.38
2022-09-10T05:35:09.598Z,12.30
2022-09-10T05:37:40.118Z,12.25
2022-09-10T05:40:09.247Z,12.18
2022-09-10T05:42:36.037Z,12.23
2022-09-10T05:45:03.343Z,12.17
2022-09-10T05:47:31.150Z,12.20
2022-09-10T05:49:59.792Z,12.21
2022-09-10T05:52:27.451Z,12.26
2022-09-10T05:54:59.429Z,12.21
2022-09-10T05:57:27.278Z,12.27
2022-09-10T05:59:54.030Z,12.32
2022-09-10T06:02:24.153Z,12.24
2022-09-10T06:04:52.741Z,12.44
2022-09-10T06:07:20.349Z,12.45
2022-09-10T06:09:47.043Z,12.48
2022-09-10T06:12:36.082Z,12.59
2022-09-10T06:15:03.746Z,12.68
2022-09-10T06:17:30.545Z,12.69
2022-09-10T06:19:57.979Z,12.73
2022-09-10T06:22:24.710Z,12.67
2022-09-10T06:24:53.798Z,12.72
2022-09-10T06:27:23.285Z,12.85
2022-09-10T06:29:51.328Z,12.86
2022-09-10T06:32:18.903Z,12.88
2022-09-10T06:34:46.791Z,12.85
2022-09-10T06:37:13.511Z,12.92
2022-09-10T06:39:41.339Z,13.16
2022-09-10T06:42:08.402Z,13.14
2022-09-10T06:44:55.097Z,13.21
2022-09-10T06:50:35.439Z,12.99
2022-09-10T06:53:02.150Z,13.00
2022-09-10T06:55:28.804Z,13.09
2022-09-10T06:57:55.489Z,13.14
2022-09-10T07:00:22.285Z,13.18
2022-09-10T07:02:53.002Z,13.37
2022-09-10T07:05:20.889Z,13.40
2022-09-10T07:07:47.981Z,13.34
2022-09-10T07:10:15.419Z,13.30
2022-09-10T07:12:42.090Z,13.41
2022-09-10T07:15:09.474Z,13.30
2022-09-10T07:17:36.759Z,13.40
2022-09-10T07:20:03.912Z,13.50
2022-09-10T07:22:42.647Z,13.43
2022-09-10T07:25:10.707Z,13.51
2022-09-10T07:27:53.839Z,13.64
2022-09-10T07:30:22.323Z,13.53
2022-09-10T07:32:50.569Z,13.50
2022-09-10T07:35:22.386Z,13.55
2022-09-10T07:37:50.134Z,13.55
2022-09-10T07:40:19.055Z,13.53
2022-09-10T07:42:45.986Z,13.51
2022-09-10T07:45:16.286Z,13.55
2022-09-10T07:47:44.693Z,13.52
2022-09-10T07:50:12.320Z,13.57
2022-09-10T07:52:39.138Z,13.70
2022-09-10T07:55:06.614Z,13.76
2022-09-10T07:57:41.072Z,13.88
2022-09-10T08:00:12.316Z,13.87
2022-09-10T08:02:43.010Z,14.07
2022-09-10T08:05:14.218Z,14.16
2022-09-10T08:07:41.728Z,14.24
2022-09-10T08:10:09.941Z,14.35
2022-09-10T08:12:38.124Z,14.33
2022-09-10T08:15:06.153Z,14.41
2022-09-10T08:17:34.306Z,14.46
2022-09-10T08:20:01.468Z,14.42
2022-09-10T08:22:28.258Z,14.46
2022-09-10T08:24:56.475Z,14.38
2022-09-10T08:27:29.112Z,14.51
2022-09-10T08:29:57.636Z,14.53
2022-09-10T08:32:24.482Z,14.63
2022-09-10T08:34:52.529Z,14.72
2022-09-10T08:37:19.381Z,14.65
2022-09-10T08:39:46.283Z,14.60
2022-09-10T08:42:46.325Z,14.58
2022-09-10T08:45:29.966Z,14.61
2022-09-10T08:48:06.663Z,14.54
2022-09-10T08:50:46.756Z,14.59
2022-09-10T08:53:42.138Z,14.68
2022-09-10T08:56:16.825Z,14.88
2022-09-10T08:59:05.092Z,14.98
2022-09-10T09:01:50.875Z,15.11
2022-09-10T09:04:40.093Z,15.18
2022-09-10T09:07:16.162Z,15.17
2022-09-10T09:09:53.667Z,15.08
2022-09-10T09:12:30.711Z,15.09
2022-09-10T09:15:01.836Z,15.02
2022-09-10T09:17:49.518Z,14.98
2022-09-10T09:20:25.888Z,14.85
2022-09-10T09:23:17.471Z,15.37
2022-09-10T09:26:10.302Z,16.85
2022-09-10T09:28:52.734Z,17.80
2022-09-10T09:31:27.457Z,18.35
2022-09-10T09:34:04.843Z,18.67
2022-09-10T09:36:39.015Z,18.34
2022-09-10T09:39:25.448Z,18.51
2022-09-10T09:42:10.436Z,19.37
2022-09-10T09:45:00.536Z,19.50
2022-09-10T09:47:27.680Z,19.68
2022-09-10T09:49:54.634Z,19.51
2022-09-10T09:52:23.698Z,19.06
2022-09-10T09:55:13.758Z,18.79
2022-09-10T09:57:42.930Z,19.25
2022-09-10T10:00:36.352Z,20.03
2022-09-10T10:03:16.562Z,20.26
2022-09-10T10:05:43.465Z,19.80
2022-09-10T10:08:30.171Z,19.41
2022-09-10T10:10:57.672Z,19.15
2022-09-10T10:13:24.865Z,19.58
2022-09-10T10:15:51.521Z,20.15
2022-09-10T10:18:38.512Z,20.08
2022-09-10T10:21:20.283Z,20.07
2022-09-10T10:23:47.862Z,20.17
2022-09-10T10:26:20.447Z,20.28
2022-09-10T10:28:48.987Z,19.73
2022-09-10T10:31:16.604Z,19.33
2022-09-10T10:33:59.220Z,19.15
2022-09-10T10:36:32.622Z,19.37
2022-09-10T10:39:24.408Z,20.02
2022-09-10T10:42:04.533Z,20.46
2022-09-10T10:44:56.816Z,19.89
2022-09-10T10:47:29.734Z,19.46
2022-09-10T10:50:18.352Z,19.24
2022-09-10T10:53:18.561Z,19.27
2022-09-10T10:56:02.118Z,19.34
2022-09-10T10:58:39.621Z,19.67
2022-09-10T11:01:18.725Z,19.98
2022-09-10T11:03:55.553Z,19.98
2022-09-10T11:06:27.383Z,19.54
2022-09-10T11:09:01.304Z,19.46
2022-09-10T11:11:34.739Z,19.33
2022-09-10T11:14:07.330Z,19.13
2022-09-10T11:16:48.762Z,19.31
2022-09-10T11:19:35.635Z,19.37
2022-09-10T11:22:18.691Z,19.75
2022-09-10T11:25:23.744Z,19.87
2022-09-10T11:27:55.969Z,20.13
2022-09-10T11:30:22.700Z,20.03
2022-09-10T11:32:55.453Z,19.84
2022-09-10T11:35:29.802Z,19.96
2022-09-10T11:38:11.864Z,19.76
2022-09-10T11:40:43.199Z,19.56
2022-09-10T11:43:42.420Z,19.48
2022-09-10T11:46:35.081Z,19.27
2022-09-10T11:49:07.651Z,18.97
2022-09-10T11:51:37.445Z,18.47
2022-09-10T11:54:09.724Z,17.97
2022-09-10T11:56:55.049Z,17.43
2022-09-10T12:00:02.514Z,17.04
2022-09-10T12:02:53.772Z,16.81
2022-09-10T12:05:58.211Z,16.94
2022-09-10T12:08:32.736Z,17.13
2022-09-10T12:11:00.850Z,17.23
2022-09-10T12:13:27.995Z,17.25
2022-09-10T12:15:59.801Z,17.18
2022-09-10T12:18:28.942Z,17.00
2022-09-10T12:21:02.650Z,16.84
2022-09-10T12:23:33.426Z,16.66
2022-09-10T12:26:20.730Z,16.42
2022-09-10T12:28:53.679Z,16.16
2022-09-10T12:31:21.932Z,15.97
2022-09-10T12:33:48.516Z,16.57
2022-09-10T12:36:27.303Z,17.44
2022-09-10T12:39:23.549Z,18.09
2022-09-10T12:41:50.203Z,18.16
2022-09-10T12:44:36.014Z,18.40
2022-09-10T12:47:18.007Z,19.21
2022-09-10T12:49:47.577Z,19.66
2022-09-10T12:52:37.472Z,19.07
2022-09-10T12:55:32.158Z,18.37
2022-09-10T12:58:32.207Z,17.84
2022-09-10T13:01:18.388Z,17.46
2022-09-10T13:03:56.292Z,17.01
2022-09-10T13:06:41.207Z,16.90
2022-09-10T13:09:25.625Z,17.09
2022-09-10T13:11:55.613Z,18.00
2022-09-10T13:14:33.478Z,19.00
2022-09-10T13:17:00.137Z,19.62
2022-09-10T13:19:26.855Z,20.07
2022-09-10T13:21:55.030Z,20.36
2022-09-10T13:24:34.339Z,20.34
2022-09-10T13:27:13.169Z,20.51
2022-09-10T13:29:43.487Z,20.40
2022-09-10T13:32:29.259Z,19.69
2022-09-10T13:35:14.961Z,19.05
2022-09-10T13:37:59.333Z,18.59
2022-09-10T13:40:38.779Z,18.22
2022-09-10T13:43:21.035Z,18.01
2022-09-10T13:45:56.235Z,17.94
2022-09-10T13:48:27.568Z,17.89
2022-09-10T13:51:21.079Z,17.96
2022-09-10T13:53:49.201Z,18.74
2022-09-10T13:56:28.188Z,19.41
2022-09-10T13:59:00.861Z,19.92
2022-09-10T14:01:49.893Z,20.23
2022-09-10T14:04:33.107Z,19.64
2022-09-10T14:07:07.009Z,19.07
2022-09-10T14:09:34.774Z,18.66
2022-09-10T14:12:08.010Z,18.54
2022-09-10T14:14:39.989Z,18.29
2022-09-10T14:17:19.888Z,18.17
2022-09-10T14:19:49.291Z,18.09
2022-09-10T14:22:22.259Z,18.05
2022-09-10T14:24:54.237Z,18.01
2022-09-10T14:27:25.783Z,17.77
2022-09-10T14:29:56.778Z,17.56
2022-09-10T14:32:36.311Z,17.48
2022-09-10T14:35:40.638Z,17.43
2022-09-10T14:38:30.497Z,17.32
2022-09-10T14:41:08.001Z,17.30
2022-09-10T14:43:38.444Z,17.32
2022-09-10T14:46:10.332Z,17.22
2022-09-10T14:48:41.426Z,17.20
2022-09-10T14:51:24.779Z,17.20
2022-09-10T14:53:53.517Z,17.26
2022-09-10T14:56:29.022Z,17.30
2022-09-10T14:58:57.686Z,17.36
2022-09-10T15:01:24.633Z,17.44
2022-09-10T15:03:51.552Z,17.53
2022-09-10T15:06:21.935Z,17.48
2022-09-10T15:08:51.205Z,17.40
2022-09-10T15:11:21.954Z,17.45
2022-09-10T15:13:49.549Z,17.44
2022-09-10T15:16:16.388Z,17.50
2022-09-10T15:18:43.015Z,17.64
2022-09-10T15:21:12.775Z,17.67
2022-09-10T15:23:39.485Z,17.57
2022-09-10T15:26:07.120Z,17.46
2022-09-10T15:28:33.757Z,17.30
2022-09-10T15:31:01.262Z,17.15
2022-09-10T15:33:28.616Z,17.14
2022-09-10T15:35:55.320Z,17.12
2022-09-10T15:38:21.912Z,17.21
2022-09-10T15:40:50.068Z,17.25
2022-09-10T15:43:19.336Z,17.29
2022-09-10T15:45:49.991Z,17.24
2022-09-10T15:48:16.613Z,17.22
2022-09-10T15:50:43.410Z,17.23
2022-09-10T15:53:12.023Z,17.23
2022-09-10T15:55:39.354Z,17.30
2022-09-10T15:58:06.420Z,17.29
2022-09-10T16:00:34.539Z,17.26
2022-09-10T16:03:01.943Z,17.16
2022-09-10T16:05:28.834Z,17.11
2022-09-10T16:07:55.472Z,16.97
2022-09-10T16:10:22.323Z,16.89
2022-09-10T16:12:48.959Z,16.81
2022-09-10T16:15:15.594Z,16.77
2022-09-10T16:17:42.363Z,16.73
2022-09-10T16:20:09.850Z,16.71
2022-09-10T16:22:36.936Z,16.74
2022-09-10T16:25:07.233Z,16.77
2022-09-10T16:27:34.074Z,16.78
2022-09-10T16:30:00.680Z,16.71
2022-09-10T16:32:28.695Z,16.68
2022-09-10T16:34:55.812Z,16.66
2022-09-10T16:37:23.531Z,16.67
2022-09-10T16:39:50.207Z,16.63
2022-09-10T16:42:17.300Z,16.59
2022-09-10T16:44:43.917Z,16.54
2022-09-10T16:47:10.558Z,16.55
2022-09-10T16:49:37.227Z,16.52
2022-09-10T16:52:05.237Z,16.46
2022-09-10T16:54:31.994Z,16.40
2022-09-10T16:56:58.839Z,16.34
2022-09-10T16:59:25.968Z,16.27
2022-09-10T17:01:53.249Z,16.24
2022-09-10T17:04:28.337Z,16.16
2022-09-10T17:06:56.427Z,16.15
2022-09-10T17:09:23.141Z,16.11
2022-09-10T17:11:49.930Z,16.10
2022-09-10T17:14:16.563Z,16.11
2022-09-10T17:16:43.795Z,16.13
2022-09-10T17:19:20.244Z,16.05
2022-09-10T17:21:51.266Z,16.02
2022-09-10T17:24:20.994Z,15.90
2022-09-10T17:26:47.800Z,15.65
2022-09-10T17:29:16.642Z,15.46
2022-09-10T17:31:46.604Z,15.29
2022-09-10T17:34:15.382Z,15.22
2022-09-10T17:36:47.019Z,15.12
2022-09-10T17:39:15.177Z,15.04
2022-09-10T17:41:43.074Z,14.97
2022-09-10T17:44:11.365Z,14.93
2022-09-10T17:46:38.381Z,14.84
2022-09-10T17:49:05.580Z,14.75
2022-09-10T17:51:33.986Z,14.66
2022-09-10T17:54:03.421Z,14.66
2022-09-10T17:56:31.094Z,14.64
2022-09-10T17:59:01.466Z,14.63
2022-09-10T18:01:31.665Z,14.56
2022-09-10T18:03:58.435Z,14.51
2022-09-10T18:06:26.975Z,14.54
2022-09-10T18:08:53.703Z,14.61
2022-09-10T18:11:23.239Z,14.61
2022-09-10T18:13:52.380Z,14.60
2022-09-10T18:16:23.788Z,14.58
2022-09-10T18:18:56.858Z,14.59
2022-09-10T18:21:28.089Z,14.48
2022-09-10T18:23:58.837Z,14.48
2022-09-10T18:26:27.437Z,14.42
2022-09-10T18:29:13.930Z,14.32
2022-09-10T18:31:46.722Z,14.31
2022-09-10T18:34:18.500Z,14.38
2022-09-10T18:36:49.627Z,14.43
2022-09-10T18:39:16.327Z,14.47
2022-09-10T18:41:43.129Z,14.50
2022-09-10T18:44:16.463Z,14.48
2022-09-10T18:46:45.861Z,14.47
2022-09-10T18:49:21.008Z,14.47
2022-09-10T18:51:49.093Z,14.44
2022-09-10T18:54:17.478Z,14.42
2022-09-10T18:56:48.912Z,14.34
2022-09-10T18:59:20.411Z,14.30
2022-09-10T19:01:48.677Z,14.26
2022-09-10T19:04:24.407Z,14.27
2022-09-10T19:06:51.891Z,14.23
2022-09-10T19:09:26.968Z,14.16
2022-09-10T19:11:55.201Z,14.22
2022-09-10T19:14:26.146Z,14.20
2022-09-10T19:16:55.045Z,14.22
2022-09-10T19:19:24.145Z,14.25
2022-09-10T19:21:55.918Z,14.20
2022-09-10T19:24:43.981Z,14.12
2022-09-10T19:27:13.164Z,14.02
2022-09-10T19:29:42.073Z,13.97
2022-09-10T19:32:09.481Z,13.95
2022-09-10T19:34:37.241Z,13.95
2022-09-10T19:37:04.262Z,13.91
2022-09-10T19:39:30.901Z,13.83
2022-09-10T19:41:58.244Z,13.85
2022-09-10T19:44:24.872Z,13.89
2022-09-10T19:46:52.165Z,13.88
2022-09-10T19:49:19.280Z,13.89
2022-09-10T19:51:46.715Z,13.86
2022-09-10T19:54:14.730Z,13.82
2022-09-10T19:56:42.819Z,13.76
2022-09-10T19:59:10.622Z,13.70
2022-09-10T20:01:41.103Z,13.70
2022-09-10T20:04:11.367Z,13.70
2022-09-10T20:06:39.325Z,13.69
2022-09-10T20:09:08.051Z,13.67
2022-09-10T20:11:35.808Z,13.69
2022-09-10T20:14:08.226Z,13.69
2022-09-10T20:16:43.004Z,13.68
2022-09-10T20:19:11.748Z,13.65
2022-09-10T20:21:38.734Z,13.59
2022-09-10T20:24:08.911Z,13.63
2022-09-10T20:26:47.288Z,13.62
2022-09-10T20:29:17.934Z,13.60
2022-09-10T20:31:46.317Z,13.60
2022-09-10T20:34:20.238Z,13.61
2022-09-10T20:36:48.503Z,13.57
2022-09-10T20:39:17.706Z,13.57
2022-09-10T20:41:45.492Z,13.63
2022-09-10T20:44:14.251Z,13.71
2022-09-10T20:46:41.972Z,13.72
2022-09-10T20:49:11.513Z,13.71
2022-09-10T20:51:40.490Z,13.71
2022-09-10T20:54:12.806Z,13.75
2022-09-10T20:56:39.826Z,13.75
2022-09-10T20:59:06.479Z,13.75
2022-09-10T21:01:33.357Z,13.77
2022-09-10T21:04:01.404Z,13.82
2022-09-10T21:06:31.286Z,13.81
2022-09-10T21:08:59.142Z,13.83
2022-09-10T21:11:28.693Z,13.85
2022-09-10T21:14:00.288Z,13.81
2022-09-10T21:16:29.725Z,13.82
2022-09-10T21:18:59.571Z,13.82
2022-09-10T21:21:28.426Z,13.81
2022-09-10T21:23:57.443Z,13.79
2022-09-10T21:26:26.831Z,13.78
2022-09-10T21:28:56.342Z,13.77
2022-09-10T21:31:23.654Z,13.75
2022-09-10T21:33:51.049Z,13.70
2022-09-10T21:36:19.979Z,13.63
2022-09-10T21:38:57.028Z,13.60
2022-09-10T21:41:26.466Z,13.59
2022-09-10T21:43:53.141Z,13.55
2022-09-10T21:46:19.905Z,13.57
2022-09-10T21:48:46.675Z,13.58
2022-09-10T21:51:15.920Z,13.57
2022-09-10T21:53:43.905Z,13.53
2022-09-10T21:56:16.488Z,13.53
2022-09-10T21:58:45.327Z,13.55
2022-09-10T22:01:18.902Z,13.56
2022-09-10T22:03:49.613Z,13.56
2022-09-10T22:06:25.489Z,13.56
2022-09-10T22:08:58.382Z,13.52
2022-09-10T22:11:31.014Z,13.48
2022-09-10T22:14:01.126Z,13.49
2022-09-10T22:16:31.131Z,13.51
2022-09-10T22:19:00.261Z,13.55
2022-09-10T22:21:27.429Z,13.59
2022-09-10T22:23:54.049Z,13.64
2022-09-10T22:26:24.577Z,13.62
2022-09-10T22:28:54.226Z,13.59
2022-09-10T22:31:23.804Z,13.56
2022-09-10T22:33:56.155Z,13.57
2022-09-10T22:36:34.704Z,13.57
2022-09-10T22:39:02.301Z,13.57
2022-09-10T22:41:31.775Z,13.54
2022-09-10T22:43:58.718Z,13.52
2022-09-10T22:46:26.676Z,13.51
2022-09-10T22:48:53.604Z,13.50
2022-09-10T22:51:25.476Z,13.51
2022-09-10T22:53:53.769Z,13.43
2022-09-10T22:56:26.207Z,13.47
2022-09-10T22:58:54.397Z,13.46
2022-09-10T23:01:24.542Z,13.51
2022-09-10T23:03:52.185Z,13.52
2022-09-10T23:06:21.503Z,13.52
2022-09-10T23:08:50.883Z,13.51
2022-09-10T23:11:29.346Z,13.51
2022-09-10T23:14:02.501Z,13.50
2022-09-10T23:16:35.403Z,13.52
2022-09-10T23:19:05.248Z,13.52
2022-09-10T23:21:33.914Z,13.57
2022-09-10T23:24:03.217Z,13.53
2022-09-10T23:26:30.288Z,13.54
2022-09-10T23:28:57.466Z,13.52
2022-09-10T23:31:26.774Z,13.45
2022-09-10T23:33:59.642Z,13.45
2022-09-10T23:36:32.468Z,13.41
2022-09-10T23:39:00.046Z,13.37
2022-09-10T23:41:27.384Z,13.29
2022-09-10T23:43:54.345Z,13.27
2022-09-10T23:46:21.602Z,13.29
2022-09-10T23:48:49.341Z,13.22
2022-09-10T23:51:19.267Z,13.14
2022-09-10T23:53:46.763Z,13.07
2022-09-10T23:56:15.510Z,13.00
2022-09-10T23:58:42.330Z,12.93
